Time;durP1;ratioP1;P1;durP2;ratioP2;P2;SDS_P1;SDS_P2;PMS_P1;PMS_P2;Temp;Humidity;BMP_temperature;BMP_pressure;BME280_temperature;BME280_humidity;BME280_pressure;Samples;Min_cycle;Max_cycle;Signal;HPM_P1;HPM_P2
2022/05/03 00:00:17;;;;;;;6.50;2.75;;;;;;;4.80;100.00;101664.81;5000140;28;20466;-74
2022/05/03 00:03:21;;;;;;;3.55;2.38;;;;;;;4.75;100.00;101672.06;5014314;28;20105;-77
2022/05/03 00:06:11;;;;;;;;;;;;;;;4.62;100.00;101666.72;5005253;28;20042;-76
2022/05/03 00:08:41;;;;;;;5.22;3.08;;;;;;;4.55;100.00;101674.00;4986229;28;20005;-76
2022/05/03 00:11:10;;;;;;;6.70;2.63;;;;;;;4.48;100.00;101672.66;4998224;28;20104;-77
2022/05/03 00:13:43;;;;;;;4.75;2.80;;;;;;;4.41;100.00;101648.78;5013827;28;20034;-77
2022/05/03 00:16:12;;;;;;;6.32;2.53;;;;;;;4.42;100.00;101653.03;4981280;28;20038;-77
2022/05/03 00:18:38;;;;;;;4.60;2.90;;;;;;;4.45;100.00;101647.69;4995143;28;20038;-76
2022/05/03 00:21:04;;;;;;;6.55;2.65;;;;;;;4.43;100.00;101651.28;5000175;28;20038;-77
2022/05/03 00:23:31;;;;;;;4.82;2.92;;;;;;;4.46;100.00;101648.50;5002997;28;20476;-76
2022/05/03 00:25:57;;;;;;;3.33;2.40;;;;;;;4.56;100.00;101656.63;5008380;28;20065;-76
2022/05/03 00:28:23;;;;;;;4.68;3.00;;;;;;;4.53;100.00;101649.84;4995148;28;20042;-76
2022/05/03 00:30:49;;;;;;;4.70;2.50;;;;;;;4.54;100.00;101653.28;4990089;28;20129;-78
2022/05/03 00:33:16;;;;;;;4.60;2.70;;;;;;;4.53;100.00;101646.44;4992278;28;20040;-76
2022/05/03 00:35:43;;;;;;;3.78;2.63;;;;;;;4.58;100.00;101640.06;5004527;28;20068;-75
2022/05/03 00:38:08;;;;;;;6.53;2.72;;;;;;;4.59;100.00;101639.09;5016393;28;20061;-75
2022/05/03 00:40:39;;;;;;;4.38;2.80;;;;;;;4.55;100.00;101649.78;5004695;28;20793;-75
2022/05/03 00:43:20;;;;;;;3.63;2.85;;;;;;;4.58;100.00;101649.63;4999520;28;20454;-74
2022/05/03 00:45:57;;;;;;;5.95;2.83;;;;;;;4.53;100.00;101655.06;4998569;28;20483;-75
2022/05/03 00:48:52;;;;;;;4.93;3.63;;;;;;;4.51;100.00;101651.69;4991891;28;20084;-75
2022/05/03 00:51:28;;;;;;;4.50;2.92;;;;;;;4.47;100.00;101653.63;4985001;28;20060;-76
2022/05/03 00:54:13;;;;;;;4.38;2.90;;;;;;;4.53;100.00;101651.63;4996966;28;20045;-76
2022/05/03 00:56:57;;;;;;;2.95;2.72;;;;;;;4.51;100.00;101656.06;5002040;28;20035;-75
2022/05/03 00:59:57;;;;;;;4.50;2.85;;;;;;;4.38;100.00;101646.34;5021036;28;20038;-76
2022/05/03 01:02:34;;;;;;;8.55;3.72;;;;;;;4.29;100.00;101652.91;4999525;28;20038;-76
2022/05/03 01:05:09;;;;;;;7.53;3.80;;;;;;;4.14;100.00;101645.06;5002247;28;20125;-76
2022/05/03 01:07:50;;;;;;;5.47;3.75;;;;;;;4.06;100.00;101653.28;5000149;28;20029;-75
2022/05/03 01:10:25;;;;;;;6.47;4.05;;;;;;;4.00;100.00;101645.81;5002032;28;20052;-76
2022/05/03 01:13:02;;;;;;;5.75;4.30;;;;;;;3.94;100.00;101644.41;5006290;28;20034;-77
2022/05/03 01:15:37;;;;;;;6.45;4.32;;;;;;;3.87;100.00;101635.25;4992160;28;20471;-77
2022/05/03 01:18:25;;;;;;;7.68;5.32;;;;;;;3.90;100.00;101640.28;4988543;28;20483;-74
2022/05/03 01:21:09;;;;;;;8.30;5.38;;;;;;;3.85;100.00;101632.72;5000557;28;20503;-77
2022/05/03 01:23:41;;;;;;;10.32;4.82;;;;;;;3.88;100.00;101631.72;4998634;28;20058;-74
2022/05/03 01:26:45;;;;;;;8.00;4.65;;;;;;;3.83;100.00;101629.38;5002878;28;20050;-77
2022/05/03 01:29:33;;;;;;;8.45;4.47;;;;;;;3.82;100.00;101632.88;4987062;28;20034;-77
2022/05/03 01:32:07;;;;;;;7.45;5.00;;;;;;;3.74;100.00;101616.88;4996176;28;20038;-76
2022/05/03 01:34:34;;;;;;;7.90;4.70;;;;;;;3.74;100.00;101626.44;4985506;28;20049;-76
2022/05/03 01:37:00;;;;;;;11.07;5.30;;;;;;;3.71;100.00;101622.22;4997262;28;20033;-75
2022/05/03 01:39:45;;;;;;;7.10;5.20;;;;;;;3.75;100.00;101625.50;4985770;28;20112;-74
2022/05/03 01:42:32;;;;;;;8.05;5.22;;;;;;;3.79;100.00;101619.25;5005944;28;20506;-76
2022/05/03 01:45:08;;;;;;;9.73;5.07;;;;;;;3.72;100.00;101621.31;4988512;28;20045;-76
2022/05/03 01:48:13;;;;;;;10.98;5.32;;;;;;;3.69;100.00;101627.53;4986309;28;20125;-76
2022/05/03 01:50:49;;;;;;;9.57;6.43;;;;;;;3.55;100.00;101622.19;5002394;28;20091;-76
2022/05/03 01:53:15;;;;;;;12.13;6.72;;;;;;;3.57;100.00;101627.31;5002686;28;20398;-75
2022/05/03 01:56:05;;;;;;;9.05;5.60;;;;;;;3.59;100.00;101623.72;5003501;28;20041;-76
2022/05/03 01:59:03;;;;;;;11.13;6.60;;;;;;;3.60;100.00;101620.22;4990885;28;20026;-75
2022/05/03 02:01:43;;;;;;;12.43;7.55;;;;;;;3.52;100.00;101619.75;5002610;28;20054;-77
2022/05/03 02:04:12;;;;;;;12.55;7.88;;;;;;;3.51;100.00;101621.53;5007965;28;20037;-74
2022/05/03 02:06:50;;;;;;;14.10;7.75;;;;;;;3.57;100.00;101620.38;5027451;28;20458;-75
2022/05/03 02:09:23;;;;;;;10.10;7.25;;;;;;;3.63;100.00;101616.63;5024720;28;20037;-77
2022/05/03 02:12:07;;;;;;;10.70;7.18;;;;;;;3.59;100.00;101615.94;4991746;28;20654;-76
2022/05/03 02:14:44;;;;;;;11.18;7.47;;;;;;;3.60;100.00;101620.22;5002311;28;20107;-75
2022/05/03 02:17:29;;;;;;;10.93;7.82;;;;;;;3.67;100.00;101621.59;5006421;28;20044;-77
2022/05/03 02:20:17;;;;;;;11.13;7.43;;;;;;;3.74;100.00;101618.66;5007636;28;20388;-75
2022/05/03 02:23:00;;;;;;;10.55;7.47;;;;;;;3.76;100.00;101615.03;5011079;28;20046;-76
2022/05/03 02:25:35;;;;;;;10.73;7.68;;;;;;;3.83;100.00;101623.38;5022413;28;20056;-76
2022/05/03 02:28:29;;;;;;;12.43;7.47;;;;;;;3.86;100.00;101620.59;5010779;28;20034;-77
2022/05/03 02:31:02;;;;;;;10.23;8.10;;;;;;;3.89;100.00;101621.25;4982297;28;20075;-76
2022/05/03 02:33:48;;;;;;;;;;;;;;;3.89;100.00;101623.84;5002550;28;20029;-75
2022/05/03 02:36:16;;;;;;;11.57;8.10;;;;;;;3.83;100.00;101624.19;5005442;28;19913;-74
2022/05/03 02:38:45;;;;;;;11.27;7.60;;;;;;;3.81;100.00;101614.81;5014545;28;20123;-75
2022/05/03 02:41:11;;;;;;;11.93;7.75;;;;;;;3.77;100.00;101616.75;5015946;28;20045;-75
2022/05/03 02:43:38;;;;;;;11.13;8.13;;;;;;;3.75;100.00;101605.59;5015946;28;20090;-76
2022/05/03 02:46:06;;;;;;;12.57;7.78;;;;;;;3.80;100.00;101611.38;5000650;28;20099;-74
2022/05/03 02:48:55;;;;;;;12.93;8.70;;;;;;;3.74;100.00;101606.50;5019300;28;20486;-76
2022/05/03 02:51:26;;;;;;;11.93;8.90;;;;;;;3.69;100.00;101603.31;4993456;28;20091;-76
2022/05/03 02:53:55;;;;;;;12.70;8.45;;;;;;;3.66;100.00;101596.53;5012623;28;20044;-77
2022/05/03 02:56:27;;;;;;;11.27;8.70;;;;;;;3.65;100.00;101600.03;5010100;28;20172;-76
2022/05/03 03:01:47;;;;;;;12.47;8.57;;;;;;;3.71;100.00;101606.66;5016076;28;20434;-77
2022/05/03 03:02:21;;;;;;;14.93;9.05;;;;;;;3.69;100.00;101601.56;4999119;28;20046;-76
2022/05/03 03:05:03;;;;;;;9.98;8.38;;;;;;;3.77;100.00;101592.53;5009061;28;20132;-76
2022/05/03 03:07:55;;;;;;;10.40;8.27;;;;;;;3.78;100.00;101604.59;5035653;28;20471;-76
2022/05/03 03:10:25;;;;;;;14.73;9.15;;;;;;;3.70;100.00;101602.41;5013262;28;20053;-77
2022/05/03 03:13:05;;;;;;;10.20;7.85;;;;;;;3.69;100.00;101590.34;5017435;28;20095;-76
2022/05/03 03:15:38;;;;;;;11.35;8.85;;;;;;;3.61;100.00;101589.91;5007371;28;20038;-77
2022/05/03 03:18:12;;;;;;;11.05;8.20;;;;;;;3.60;100.00;101598.59;4989641;28;20039;-76
2022/05/03 03:20:43;;;;;;;11.75;8.25;;;;;;;3.55;100.00;101598.84;4991631;28;20047;-75
2022/05/03 03:23:15;;;;;;;10.88;7.93;;;;;;;3.60;100.00;101599.47;5003899;28;20041;-74
2022/05/03 03:25:43;;;;;;;14.27;8.63;;;;;;;3.58;100.00;101598.72;5018679;28;20690;-79
2022/05/03 03:28:12;;;;;;;10.98;8.10;;;;;;;3.58;100.00;101595.25;5005116;28;20498;-75
2022/05/03 03:30:41;;;;;;;9.10;7.43;;;;;;;3.62;100.00;101599.38;5019323;28;20117;-74
2022/05/03 03:33:08;;;;;;;11.65;7.53;;;;;;;3.60;100.00;101599.47;5017024;28;20038;-77
2022/05/03 03:35:35;;;;;;;10.85;7.68;;;;;;;3.61;100.00;101593.34;5014752;28;20041;-76
2022/05/03 03:38:03;;;;;;;9.00;7.00;;;;;;;3.59;100.00;101591.75;5012338;28;20099;-74
2022/05/03 03:40:29;;;;;;;9.80;6.85;;;;;;;3.54;100.00;101584.19;5021654;28;20037;-75
2022/05/03 03:42:55;;;;;;;11.23;7.10;;;;;;;3.48;100.00;101572.41;5009947;28;20041;-76
2022/05/03 03:45:21;;;;;;;8.82;7.00;;;;;;;3.47;100.00;101572.50;5007199;28;20091;-73
2022/05/03 03:47:47;;;;;;;9.18;7.07;;;;;;;3.47;100.00;101590.66;5025745;28;20380;-75
2022/05/03 03:50:14;;;;;;;10.70;7.95;;;;;;;3.45;100.00;101595.06;5006616;28;20034;-76
2022/05/03 03:52:42;;;;;;;11.50;9.20;;;;;;;3.43;100.00;101604.69;5020728;28;20487;-77
2022/05/03 03:55:10;;;;;;;12.93;9.23;;;;;;;3.38;100.00;101602.31;5009395;28;20109;-75
2022/05/03 03:57:37;;;;;;;13.43;9.35;;;;;;;3.37;100.00;101610.19;5011034;28;20037;-76
2022/05/03 04:00:08;;;;;;;11.98;9.15;;;;;;;3.38;100.00;101604.09;5021764;28;20083;-75
2022/05/03 04:02:44;;;;;;;14.25;10.00;;;;;;;3.42;100.00;101609.03;5012018;28;20041;-76
2022/05/03 04:05:19;;;;;;;15.18;9.48;;;;;;;3.45;100.00;101613.22;5005154;28;20491;-75
2022/05/03 04:07:45;;;;;;;16.50;10.13;;;;;;;3.51;100.00;101613.75;5025750;28;20116;-75
2022/05/03 04:10:12;;;;;;;14.43;9.40;;;;;;;3.57;100.00;101609.97;5003818;28;20119;-75
2022/05/03 04:12:38;;;;;;;15.10;10.38;;;;;;;3.69;100.00;101603.31;5015021;28;20061;-75
2022/05/03 04:15:05;;;;;;;15.48;10.27;;;;;;;3.78;100.00;101607.19;5022581;28;20121;-75
2022/05/03 04:17:30;;;;;;;14.20;10.10;;;;;;;3.78;100.00;101607.19;5017096;28;20044;-77
2022/05/03 04:19:56;;;;;;;17.20;9.95;;;;;;;3.74;100.00;101606.50;5006248;28;20041;-76
2022/05/03 04:22:23;;;;;;;13.20;10.05;;;;;;;3.75;100.00;101608.19;5012509;28;20034;-76
2022/05/03 04:24:49;;;;;;;12.43;9.77;;;;;;;3.75;100.00;101603.00;5006668;28;20610;-77
2022/05/03 04:27:15;;;;;;;18.52;9.65;;;;;;;3.80;100.00;101610.53;4988142;28;20159;-75
2022/05/03 04:29:41;;;;;;;14.10;9.45;;;;;;;3.77;100.00;101611.53;5005140;28;20052;-72
2022/05/03 04:32:07;;;;;;;18.75;10.18;;;;;;;3.94;100.00;101612.38;5009028;28;20128;-74
2022/05/03 04:34:33;;;;;;;11.93;8.63;;;;;;;3.99;100.00;101607.78;5024930;28;20096;-77
2022/05/03 04:36:59;;;;;;;15.80;9.48;;;;;;;4.23;100.00;101616.00;5018187;28;20442;-76
2022/05/03 04:39:25;;;;;;;12.05;8.55;;;;;;;4.36;100.00;101609.22;5022791;28;20056;-78
2022/05/03 04:41:50;;;;;;;14.30;8.55;;;;;;;4.46;100.00;101609.53;5009895;28;20045;-77
2022/05/03 04:44:16;;;;;;;10.43;7.97;;;;;;;4.67;100.00;101618.75;5019526;28;20038;-77
2022/05/03 04:46:41;;;;;;;16.27;8.85;;;;;;;4.85;100.00;101623.81;5010817;28;20543;-76
2022/05/03 04:49:07;;;;;;;10.85;7.97;;;;;;;4.95;100.00;101624.94;5007412;28;20037;-77
2022/05/03 04:51:33;;;;;;;13.20;7.60;;;;;;;5.17;100.00;101623.72;5021269;28;20034;-75
2022/05/03 04:53:58;;;;;;;11.13;7.68;;;;;;;5.28;100.00;101623.94;5005422;28;20072;-77
2022/05/03 04:56:25;;;;;;;10.10;6.88;;;;;;;5.36;100.00;101626.06;5026768;28;20697;-76
2022/05/03 04:58:55;;;;;;;10.60;8.13;;;;;;;5.52;100.00;101621.63;5015524;28;20574;-76
2022/05/03 05:01:21;;;;;;;12.55;8.45;;;;;;;5.67;100.00;101627.69;5017310;28;20026;-75
2022/05/03 05:03:47;;;;;;;10.98;7.90;;;;;;;5.79;100.00;101624.31;5003012;28;20049;-75
2022/05/03 05:06:13;;;;;;;12.52;8.75;;;;;;;5.85;100.00;101628.31;4996021;28;20078;-76
2022/05/03 05:08:40;;;;;;;11.00;8.18;;;;;;;5.89;100.00;101629.78;5008612;28;20141;-77
2022/05/03 05:11:06;;;;;;;12.15;8.27;;;;;;;5.91;100.00;101627.09;5009019;28;20049;-76
2022/05/03 05:13:33;;;;;;;12.63;8.88;;;;;;;5.98;100.00;101628.44;5008198;28;20033;-76
2022/05/03 05:15:59;;;;;;;11.02;7.18;;;;;;;6.10;100.00;101632.84;4995993;28;20034;-76
2022/05/03 05:18:25;;;;;;;13.85;8.20;;;;;;;6.23;100.00;101640.75;4988324;28;20439;-78
2022/05/03 05:20:51;;;;;;;13.40;8.90;;;;;;;6.26;100.00;101637.13;4992750;28;20038;-78
2022/05/03 05:23:17;;;;;;;12.25;9.30;;;;;;;6.38;100.00;101633.75;4990993;28;20036;-78
2022/05/03 05:25:44;;;;;;;12.93;9.60;;;;;;;6.51;100.00;101637.22;4989472;28;20066;-75
2022/05/03 05:28:09;;;;;;;11.43;9.23;;;;;;;6.59;100.00;101624.56;5011654;28;20396;-76
2022/05/03 05:30:35;;;;;;;13.52;9.82;;;;;;;6.71;100.00;101635.97;4993730;28;20034;-75
2022/05/03 05:33:01;;;;;;;16.55;9.93;;;;;;;6.83;100.00;101636.94;5006965;28;20051;-76
2022/05/03 05:35:26;;;;;;;17.70;11.35;;;;;;;6.86;100.00;101638.53;4999734;28;20509;-76
2022/05/03 05:37:52;;;;;;;14.43;10.38;;;;;;;6.94;100.00;101636.22;4988479;28;20041;-76
2022/05/03 05:40:17;;;;;;;17.02;10.43;;;;;;;7.02;100.00;101639.16;4994850;28;20124;-77
2022/05/03 05:42:43;;;;;;;16.50;10.77;;;;;;;7.23;100.00;101639.50;4989155;28;20033;-74
2022/05/03 05:45:09;;;;;;;14.90;10.00;;;;;;;7.30;100.00;101635.53;4977641;28;20030;-76
2022/05/03 05:47:37;;;;;;;16.23;11.23;;;;;;;7.32;100.00;101625.84;5012531;28;20040;-78
2022/05/03 05:50:03;;;;;;;15.75;10.23;;;;;;;7.46;100.00;101637.97;5014218;28;20038;-78
2022/05/03 05:55:13;;;;;;;20.88;10.75;;;;;;;7.70;100.00;101632.81;5011099;28;20112;-77
2022/05/03 05:57:39;;;;;;;19.08;12.38;;;;;;;7.88;100.00;101635.13;4979713;28;20117;-76
2022/05/03 06:00:05;;;;;;;21.35;12.55;;;;;;;8.08;100.00;101628.47;5022810;28;20065;-77
2022/05/03 06:02:38;;;;;;;24.30;12.85;;;;;;;8.18;100.00;101640.78;5002130;28;20037;-76
2022/05/03 06:05:04;;;;;;;21.13;13.32;;;;;;;8.21;100.00;101636.28;5005967;28;20061;-76
2022/05/03 06:07:30;;;;;;;17.27;12.25;;;;;;;8.29;100.00;101641.81;4997437;28;20106;-75
2022/05/03 06:09:55;;;;;;;17.42;12.13;;;;;;;8.39;100.00;101648.88;5011170;28;20527;-76
2022/05/03 06:12:21;;;;;;;22.38;13.18;;;;;;;8.45;100.00;101645.00;4974422;28;20061;-76
2022/05/03 06:14:46;;;;;;;21.58;11.80;;;;;;;8.50;100.00;101649.94;4973718;28;20368;-76
2022/05/03 06:17:12;;;;;;;19.77;12.90;;;;;;;8.46;100.00;101657.16;5009880;28;20086;-76
2022/05/03 06:19:38;;;;;;;20.25;13.27;;;;;;;8.48;100.00;101644.81;4999919;28;20116;-76
2022/05/03 06:22:04;;;;;;;18.52;13.13;;;;;;;8.45;100.00;101645.00;5006856;28;20364;-74
2022/05/03 06:24:30;;;;;;;19.10;13.55;;;;;;;8.43;100.00;101635.63;5007067;28;20398;-77
2022/05/03 06:26:55;;;;;;;20.65;13.50;;;;;;;8.41;100.00;101650.56;4988849;28;20104;-76
2022/05/03 06:29:21;;;;;;;18.88;13.60;;;;;;;8.30;100.00;101646.09;5014486;28;20103;-77
2022/05/03 06:31:46;;;;;;;23.00;13.45;;;;;;;8.28;100.00;101643.56;4987811;28;20046;-76
2022/05/03 06:34:12;;;;;;;23.92;14.43;;;;;;;8.35;100.00;101641.38;5009932;28;20041;-76
2022/05/03 06:36:38;;;;;;;25.52;13.88;;;;;;;8.38;100.00;101649.84;5010100;28;20030;-78
2022/05/03 06:39:05;;;;;;;23.17;14.80;;;;;;;8.48;100.00;101652.66;4981929;28;20463;-76
2022/05/03 06:41:31;;;;;;;27.60;14.48;;;;;;;8.48;100.00;101665.72;5002425;28;20129;-76
2022/05/03 06:43:58;;;;;;;23.02;13.75;;;;;;;8.51;100.00;101662.03;4993638;28;20092;-78
2022/05/03 06:46:28;;;;;;;22.77;14.52;;;;;;;8.50;100.00;101666.44;5002670;28;20045;-76
2022/05/03 06:48:54;;;;;;;26.92;14.85;;;;;;;8.58;100.00;101660.66;5013203;28;20507;-76
2022/05/03 06:51:21;;;;;;;24.05;14.48;;;;;;;8.68;100.00;101669.53;5014115;28;20125;-76
2022/05/03 06:53:47;;;;;;;20.75;14.40;;;;;;;8.74;100.00;101670.88;4990239;28;20036;-77
2022/05/03 06:56:12;;;;;;;22.45;14.32;;;;;;;8.81;100.00;101672.06;5001496;28;20038;-76
2022/05/03 06:58:39;;;;;;;32.05;15.95;;;;;;;8.92;100.00;101677.34;4993372;28;20036;-76
2022/05/03 07:01:14;;;;;;;28.02;15.82;;;;;;;8.91;100.00;101677.44;4988240;28;20029;-76
2022/05/03 07:03:40;;;;;;;30.83;16.20;;;;;;;8.83;100.00;101679.81;4987430;28;20030;-78
2022/05/03 07:06:07;;;;;;;29.60;16.52;;;;;;;8.77;100.00;101675.84;5002994;28;20480;-77
2022/05/03 07:08:33;;;;;;;28.65;16.85;;;;;;;8.91;100.00;101688.78;5006263;28;20831;-76
2022/05/03 07:10:59;;;;;;;28.75;16.60;;;;;;;8.91;100.00;101691.38;4983683;28;20074;-77
2022/05/03 07:13:25;;;;;;;25.77;16.85;;;;;;;8.94;100.00;101679.84;4988743;28;20026;-76
2022/05/03 07:15:55;;;;;;;29.05;17.25;;;;;;;9.08;100.00;101691.91;4994353;28;20049;-76
2022/05/03 07:23:51;;;;;;;30.30;16.42;;;;;;;9.17;100.00;101696.47;4991541;28;20030;-75
2022/05/03 07:26:21;;;;;;;29.40;15.88;;;;;;;9.10;100.00;101693.47;5007671;28;20041;-76
2022/05/03 07:28:49;;;;;;;28.42;15.98;;;;;;;9.21;100.00;101690.06;5001121;28;20692;-77
2022/05/03 07:31:16;;;;;;;32.08;16.83;;;;;;;9.27;100.00;101699.25;5007597;28;20036;-77
2022/05/03 07:33:42;;;;;;;27.95;16.08;;;;;;;9.35;100.00;101687.25;5001446;28;20033;-77
2022/05/03 07:36:09;;;;;;;28.05;16.30;;;;;;;9.39;100.00;101694.88;5006797;28;20026;-78
2022/05/03 07:38:35;;;;;;;29.08;16.70;;;;;;;9.44;100.00;101693.56;5003907;28;20581;-76
2022/05/03 07:41:01;;;;;;;29.88;17.10;;;;;;;9.35;100.00;101697.72;4993520;28;20064;-76
2022/05/03 07:43:26;;;;;;;28.95;16.95;;;;;;;9.35;100.00;101695.09;4974168;28;20121;-78
2022/05/03 07:45:52;;;;;;;31.85;17.27;;;;;;;9.51;100.00;101701.78;4996250;28;20057;-77
2022/05/03 07:48:18;;;;;;;28.15;17.35;;;;;;;9.42;100.00;101700.72;5003595;28;20083;-78
2022/05/03 07:50:44;;;;;;;30.58;18.00;;;;;;;9.62;100.00;101700.97;4988123;28;20046;-77
2022/05/03 07:53:10;;;;;;;27.98;17.15;;;;;;;9.75;100.00;101694.69;5008429;28;20735;-76
2022/05/03 07:55:36;;;;;;;28.05;16.10;;;;;;;9.89;100.00;101703.28;4991843;28;20369;-78
2022/05/03 07:58:02;;;;;;;30.52;15.52;;;;;;;10.06;100.00;101702.81;4973513;28;20041;-76
2022/05/03 08:00:28;;;;;;;34.17;16.42;;;;;;;10.18;100.00;101706.25;4998179;28;20030;-76
2022/05/03 08:02:54;;;;;;;24.90;15.07;;;;;;;10.14;100.00;101697.78;4980332;28;20037;-78
2022/05/03 08:05:19;;;;;;;26.50;14.25;;;;;;;10.06;100.00;101688.88;4990273;28;20026;-77
2022/05/03 08:07:46;;;;;;;29.92;15.25;;;;;;;10.05;100.00;101695.88;5008721;28;20036;-79
2022/05/03 08:10:12;;;;;;;24.88;14.75;;;;;;;9.97;100.00;101705.31;5000089;28;20053;-77
2022/05/03 08:12:38;;;;;;;24.13;15.55;;;;;;;9.95;100.00;101708.03;5009735;28;20398;-78
2022/05/03 08:15:05;;;;;;;26.05;15.05;;;;;;;10.02;100.00;101713.63;5007068;28;20506;-78
2022/05/03 08:17:31;;;;;;;26.83;15.73;;;;;;;10.05;100.00;101714.22;4990638;28;20049;-77
2022/05/03 08:19:57;;;;;;;24.77;15.20;;;;;;;10.05;100.00;101718.66;4981095;28;20052;-76
2022/05/03 08:22:25;;;;;;;25.60;15.88;;;;;;;10.05;100.00;101721.25;4995943;28;20624;-76
2022/05/03 08:24:51;;;;;;;30.15;14.98;;;;;;;9.87;100.00;101732.22;5001748;28;20100;-76
2022/05/03 08:27:19;;;;;;;25.80;14.50;;;;;;;9.94;100.00;101720.31;4993579;28;20037;-77
2022/05/03 08:29:45;;;;;;;27.40;14.95;;;;;;;9.99;100.00;101724.38;4996128;28;20070;-76
2022/05/03 08:32:11;;;;;;;30.40;15.15;;;;;;;9.95;100.00;101729.00;5008575;28;20064;-77
2022/05/03 08:34:36;;;;;;;23.15;12.98;;;;;;;9.82;100.00;101729.13;5004163;28;20111;-77
2022/05/03 08:42:32;;;;;;;25.15;13.20;;;;;;;9.86;100.00;101746.25;5008778;28;20034;-77
2022/05/03 08:44:59;;;;;;;25.85;13.20;;;;;;;9.92;100.00;101744.97;5009812;28;20545;-77
2022/05/03 08:47:27;;;;;;;24.13;12.60;;;;;;;9.75;100.00;101741.84;4988878;28;20034;-78
2022/05/03 08:50:02;;;;;;;23.42;12.32;;;;;;;9.92;100.00;101745.78;5007033;28;20049;-77
2022/05/03 08:52:33;;;;;;;27.98;12.45;;;;;;;9.82;100.00;101744.00;5009943;28;21643;-77
2022/05/03 08:55:02;;;;;;;23.83;12.32;;;;;;;9.77;100.00;101738.28;4977332;28;20071;-77
2022/05/03 08:57:28;;;;;;;23.10;12.38;;;;;;;9.77;100.00;101746.13;4997663;28;20851;-77
2022/05/03 08:59:54;;;;;;;24.42;12.75;;;;;;;9.75;100.00;101743.63;5010936;28;20048;-77
2022/05/03 09:02:20;;;;;;;23.88;12.60;;;;;;;9.84;100.00;101747.34;4995092;28;20045;-77
2022/05/03 09:04:47;;;;;;;24.30;14.25;;;;;;;9.84;100.00;101745.56;5014663;28;20030;-79
2022/05/03 09:07:20;;;;;;;26.52;12.65;;;;;;;9.98;100.00;101748.91;5009287;28;20033;-77
2022/05/03 09:09:48;;;;;;;22.90;11.60;;;;;;;10.02;100.00;101752.94;5006049;28;20129;-76
2022/05/03 09:12:28;;;;;;;26.20;11.20;;;;;;;10.02;100.00;101750.31;4997637;28;20029;-77
2022/05/03 09:15:01;;;;;;;19.38;10.63;;;;;;;10.11;100.00;101758.34;4979182;28;20030;-77
2022/05/03 09:17:40;;;;;;;24.55;9.93;;;;;;;10.26;100.00;101748.41;4993152;28;20124;-77
2022/05/03 09:25:56;;;;;;;16.40;9.18;;;;;;;10.62;100.00;101766.66;4994976;28;20045;-77
2022/05/03 09:28:23;;;;;;;24.13;10.15;;;;;;;10.66;100.00;101763.69;4998523;28;20042;-77
2022/05/03 09:30:50;;;;;;;18.42;9.13;;;;;;;10.89;100.00;101753.16;5011103;28;20033;-78
2022/05/03 09:33:22;;;;;;;18.08;8.30;;;;;;;11.15;98.84;101760.69;4993675;28;20030;-77
2022/05/03 09:35:49;;;;;;;22.10;8.02;;;;;;;11.50;97.38;101761.22;4985123;28;20045;-78
2022/05/03 09:38:15;;;;;;;17.15;7.80;;;;;;;11.92;95.96;101756.94;5011416;28;20034;-77
2022/05/03 09:40:43;;;;;;;17.45;7.65;;;;;;;12.18;93.57;101760.81;5014178;28;20561;-79
2022/05/03 09:43:09;;;;;;;15.70;7.80;;;;;;;12.19;90.58;101743.25;5009321;28;20518;-76
2022/05/03 09:45:36;;;;;;;15.00;6.57;;;;;;;12.44;90.68;101750.66;5008818;28;20034;-78
2022/05/03 09:48:06;;;;;;;12.57;6.03;;;;;;;12.60;88.18;101765.09;5008854;28;20029;-76
2022/05/03 09:50:46;;;;;;;16.88;6.70;;;;;;;12.58;89.60;101761.78;4980936;28;20080;-80
2022/05/03 09:53:20;;;;;;;13.48;5.65;;;;;;;12.65;89.52;101762.91;4975461;28;20372;-77
2022/05/03 09:55:48;;;;;;;11.90;5.45;;;;;;;12.71;89.23;101761.53;5005277;28;20384;-78
2022/05/03 09:58:15;;;;;;;15.63;5.55;;;;;;;12.85;85.99;101755.88;5007361;28;20079;-75
2022/05/03 10:00:42;;;;;;;12.73;5.07;;;;;;;13.20;83.44;101762.41;4989957;28;20049;-77
2022/05/03 10:03:10;;;;;;;15.93;5.10;;;;;;;13.57;80.25;101753.81;5005878;28;20030;-77
2022/05/03 10:05:41;;;;;;;12.30;5.28;;;;;;;14.09;81.42;101761.31;4979178;28;20040;-78
2022/05/03 10:08:11;;;;;;;13.05;4.40;;;;;;;14.02;74.34;101755.78;5007267;28;20030;-77
2022/05/03 10:10:41;;;;;;;12.60;4.13;;;;;;;14.10;76.59;101757.69;5010687;28;20052;-77
2022/05/03 10:13:06;;;;;;;10.52;4.20;;;;;;;13.53;77.72;101760.34;4992304;28;20045;-76
2022/05/03 10:21:29;;;;;;;10.63;3.42;;;;;;;13.07;77.60;101757.41;5004183;28;20516;-77
2022/05/03 10:24:09;;;;;;;8.63;3.25;;;;;;;13.43;79.19;101753.28;4976765;28;20403;-77
2022/05/03 10:27:05;;;;;;;12.23;3.20;;;;;;;13.56;77.20;101753.00;4991657;28;20061;-79
2022/05/03 10:29:36;;;;;;;10.48;3.03;;;;;;;13.63;77.68;101753.25;5003791;28;20034;-78
2022/05/03 10:32:22;;;;;;;18.08;3.25;;;;;;;13.98;74.17;101751.78;4993416;28;20474;-75
2022/05/03 10:35:03;;;;;;;10.18;3.10;;;;;;;14.12;74.84;101748.66;5006456;28;20500;-75
2022/05/03 10:37:29;;;;;;;9.23;3.10;;;;;;;13.96;73.59;101751.09;4993792;28;20050;-76
2022/05/03 10:40:00;;;;;;;11.02;3.40;;;;;;;13.97;71.22;101750.09;4991985;28;20045;-78
2022/05/03 10:42:28;;;;;;;9.48;2.45;;;;;;;14.46;73.88;101748.06;4990477;28;20042;-76
2022/05/03 10:45:11;;;;;;;13.13;2.70;;;;;;;14.71;72.69;101743.94;4996200;28;20030;-76
2022/05/03 10:47:49;;;;;;;9.80;2.80;;;;;;;14.99;70.42;101747.34;5005389;28;20041;-78
2022/05/03 10:50:18;;;;;;;12.63;3.40;;;;;;;14.40;69.68;101735.47;4991150;28;20033;-76
2022/05/03 10:52:53;;;;;;;11.98;3.10;;;;;;;14.13;70.72;101745.06;4989121;28;20049;-78
2022/05/03 10:55:20;;;;;;;11.07;2.75;;;;;;;14.66;71.18;101732.16;4991700;28;20115;-77
2022/05/03 10:58:20;;;;;;;13.30;2.42;;;;;;;14.71;67.98;101733.38;4991280;28;20037;-78
2022/05/03 11:01:10;;;;;;;7.75;2.67;;;;;;;14.77;67.31;101731.94;4970261;28;20125;-75
2022/05/03 11:03:40;;;;;;;10.18;2.40;;;;;;;14.88;68.21;101739.66;4988585;28;20443;-78
2022/05/03 11:06:18;;;;;;;13.57;3.00;;;;;;;14.68;67.10;101733.66;4983231;28;20074;-78
2022/05/03 11:11:50;;;;;;;6.68;2.28;;;;;;;14.77;67.82;101738.06;5005686;28;20527;-78
2022/05/03 11:14:16;;;;;;;8.57;2.58;;;;;;;14.74;69.18;101733.06;4992886;28;20038;-76
2022/05/03 11:16:43;;;;;;;6.20;1.90;;;;;;;14.40;70.08;101733.66;4997413;28;20056;-79
2022/05/03 11:19:10;;;;;;;5.50;1.75;;;;;;;15.17;70.34;101731.47;4976608;28;20037;-77
2022/05/03 11:21:36;;;;;;;3.95;1.70;;;;;;;15.83;64.63;101731.16;5001614;28;20038;-78
2022/05/03 11:24:03;;;;;;;8.80;2.25;;;;;;;16.21;62.17;101734.28;4999064;28;20025;-79
2022/05/03 11:26:29;;;;;;;6.82;1.85;;;;;;;16.21;61.18;101721.06;5010776;28;20387;-77
2022/05/03 11:29:02;;;;;;;9.95;1.98;;;;;;;16.75;63.73;101742.75;5000010;28;20041;-75
2022/05/03 11:31:27;;;;;;;;;;;;;;;17.45;61.03;101750.25;4990734;28;20037;-77
2022/05/03 11:33:56;;;;;;;6.43;1.35;;;;;;;16.03;58.05;101737.03;5013353;28;20434;-77
2022/05/03 11:36:23;;;;;;;6.05;1.70;;;;;;;15.90;60.00;101740.13;5006688;28;20052;-76
2022/05/03 11:38:50;;;;;;;7.65;1.60;;;;;;;15.62;61.27;101740.25;4999415;28;20543;-77
2022/05/03 11:41:20;;;;;;;4.95;1.67;;;;;;;15.72;60.48;101729.56;5011576;28;20026;-77
2022/05/03 11:43:47;;;;;;;7.07;1.75;;;;;;;15.79;59.82;101733.28;4996114;28;20111;-77
2022/05/03 11:46:17;;;;;;;8.27;1.70;;;;;;;15.85;59.73;101726.53;4992649;28;20030;-77
2022/05/03 11:48:45;;;;;;;8.02;2.05;;;;;;;14.90;62.30;101737.69;5013356;28;20088;-77
2022/05/03 11:56:47;;;;;;;8.95;1.88;;;;;;;15.48;61.09;101732.88;5003877;28;20038;-78
2022/05/03 11:59:14;;;;;;;7.75;1.55;;;;;;;15.89;59.99;101733.16;4996627;28;20044;-77
2022/05/03 12:01:40;;;;;;;8.30;1.90;;;;;;;15.11;62.18;101744.50;4985969;28;20092;-79
2022/05/03 12:04:08;;;;;;;5.53;1.60;;;;;;;14.63;62.28;101725.34;5001840;28;20041;-79
2022/05/03 12:06:43;;;;;;;7.78;1.60;;;;;;;14.83;65.03;101719.97;5003098;28;20367;-79